sensor_id;sensor_type;location;lat;lon;timestamp;pressure;altitude;pressure_sealevel;temperature;humidity
70407;BME280;57821;52.202;0.154;2023-03-14T00:01:13;98543.06;;;9.74;100.00
70407;BME280;57821;52.202;0.154;2023-03-14T00:03:41;98555.81;;;9.78;100.00
70407;BME280;57821;52.202;0.154;2023-03-14T00:06:08;98546.44;;;9.76;100.00
70407;BME280;57821;52.202;0.154;2023-03-14T00:08:36;98572.38;;;9.74;100.00
70407;BME280;57821;52.202;0.154;2023-03-14T00:11:14;98611.50;;;9.65;100.00
70407;BME280;57821;52.202;0.154;2023-03-14T00:13:41;98646.13;;;9.61;100.00
70407;BME280;57821;52.202;0.154;2023-03-14T00:16:10;98648.72;;;9.35;100.00
70407;BME280;57821;52.202;0.154;2023-03-14T00:18:38;98650.28;;;9.14;100.00
70407;BME280;57821;52.202;0.154;2023-03-14T00:21:06;98666.44;;;8.91;100.00
70407;BME280;57821;52.202;0.154;2023-03-14T00:23:35;98675.72;;;8.69;100.00
70407;BME280;57821;52.202;0.154;2023-03-14T00:26:04;98669.50;;;8.47;100.00
70407;BME280;57821;52.202;0.154;2023-03-14T00:28:31;98688.72;;;8.37;100.00
70407;BME280;57821;52.202;0.154;2023-03-14T00:30:58;98692.41;;;8.27;100.00
70407;BME280;57821;52.202;0.154;2023-03-14T00:33:24;98696.91;;;8.20;100.00
70407;BME280;57821;52.202;0.154;2023-03-14T00:35:59;98692.19;;;8.03;100.00
70407;BME280;57821;52.202;0.154;2023-03-14T00:38:29;98725.03;;;7.97;100.00
70407;BME280;57821;52.202;0.154;2023-03-14T00:40:56;98725.34;;;7.84;100.00
70407;BME280;57821;52.202;0.154;2023-03-14T00:43:23;98741.09;;;7.74;100.00
70407;BME280;57821;52.202;0.154;2023-03-14T00:45:51;98745.69;;;7.61;100.00
70407;BME280;57821;52.202;0.154;2023-03-14T00:48:19;98751.09;;;7.51;100.00
70407;BME280;57821;52.202;0.154;2023-03-14T00:50:46;98751.38;;;7.38;100.00
70407;BME280;57821;52.202;0.154;2023-03-14T00:53:14;98748.97;;;7.29;100.00
70407;BME280;57821;52.202;0.154;2023-03-14T00:55:42;98756.84;;;7.23;100.00
70407;BME280;57821;52.202;0.154;2023-03-14T00:58:10;98767.28;;;7.19;100.00
70407;BME280;57821;52.202;0.154;2023-03-14T01:00:37;98775.09;;;7.14;100.00
70407;BME280;57821;52.202;0.154;2023-03-14T01:03:04;98778.63;;;7.10;100.00
70407;BME280;57821;52.202;0.154;2023-03-14T01:05:31;98777.84;;;7.05;100.00
70407;BME280;57821;52.202;0.154;2023-03-14T01:07:58;98777.91;;;7.04;100.00
70407;BME280;57821;52.202;0.154;2023-03-14T01:10:26;98782.19;;;7.05;100.00
70407;BME280;57821;52.202;0.154;2023-03-14T01:12:53;98800.25;;;7.03;100.00
70407;BME280;57821;52.202;0.154;2023-03-14T01:15:20;98802.84;;;7.01;100.00
70407;BME280;57821;52.202;0.154;2023-03-14T01:17:46;98807.16;;;7.01;100.00
70407;BME280;57821;52.202;0.154;2023-03-14T01:20:14;98814.13;;;6.97;100.00
70407;BME280;57821;52.202;0.154;2023-03-14T01:22:41;98824.38;;;6.99;100.00
70407;BME280;57821;52.202;0.154;2023-03-14T01:25:11;98831.28;;;6.97;100.00
70407;BME280;57821;52.202;0.154;2023-03-14T01:27:38;98838.19;;;6.95;100.00
70407;BME280;57821;52.202;0.154;2023-03-14T01:30:06;98846.78;;;6.94;100.00
70407;BME280;57821;52.202;0.154;2023-03-14T01:32:32;98855.47;;;6.90;100.00
70407;BME280;57821;52.202;0.154;2023-03-14T01:34:59;98852.03;;;6.91;100.00
70407;BME280;57821;52.202;0.154;2023-03-14T01:37:26;98851.22;;;6.87;100.00
70407;BME280;57821;52.202;0.154;2023-03-14T01:39:52;98864.09;;;6.87;100.00
70407;BME280;57821;52.202;0.154;2023-03-14T01:42:19;98868.34;;;6.90;100.00
70407;BME280;57821;52.202;0.154;2023-03-14T01:47:18;98880.38;;;6.89;100.00
70407;BME280;57821;52.202;0.154;2023-03-14T01:49:46;98874.44;;;6.86;100.00
70407;BME280;57821;52.202;0.154;2023-03-14T01:52:19;98872.75;;;6.85;100.00
70407;BME280;57821;52.202;0.154;2023-03-14T01:54:56;98885.50;;;6.91;100.00
70407;BME280;57821;52.202;0.154;2023-03-14T01:57:30;98888.94;;;6.91;100.00
70407;BME280;57821;52.202;0.154;2023-03-14T02:00:13;98875.31;;;6.86;100.00
70407;BME280;57821;52.202;0.154;2023-03-14T02:02:54;98888.94;;;6.91;100.00
70407;BME280;57821;52.202;0.154;2023-03-14T02:05:27;98899.25;;;6.91;100.00
70407;BME280;57821;52.202;0.154;2023-03-14T02:08:00;98904.44;;;6.90;100.00
70407;BME280;57821;52.202;0.154;2023-03-14T02:10:37;98907.09;;;6.84;100.00
70407;BME280;57821;52.202;0.154;2023-03-14T02:13:06;98925.16;;;6.82;100.00
70407;BME280;57821;52.202;0.154;2023-03-14T02:15:44;98929.44;;;6.85;100.00
70407;BME280;57821;52.202;0.154;2023-03-14T02:18:31;98926.88;;;6.83;100.00
70407;BME280;57821;52.202;0.154;2023-03-14T02:24:24;98940.66;;;6.81;100.00
70407;BME280;57821;52.202;0.154;2023-03-14T02:29:30;98936.53;;;6.71;100.00
70407;BME280;57821;52.202;0.154;2023-03-14T02:32:02;98960.47;;;6.76;100.00
70407;BME280;57821;52.202;0.154;2023-03-14T02:34:29;98952.84;;;6.71;100.00
70407;BME280;57821;52.202;0.154;2023-03-14T02:36:56;98966.56;;;6.70;100.00
70407;BME280;57821;52.202;0.154;2023-03-14T02:39:29;98961.56;;;6.63;100.00
70407;BME280;57821;52.202;0.154;2023-03-14T02:41:58;98971.03;;;6.60;100.00
70407;BME280;57821;52.202;0.154;2023-03-14T02:44:24;98980.56;;;6.57;100.00
70407;BME280;57821;52.202;0.154;2023-03-14T02:46:51;98993.53;;;6.51;100.00
70407;BME280;57821;52.202;0.154;2023-03-14T02:49:18;99008.19;;;6.46;100.00
70407;BME280;57821;52.202;0.154;2023-03-14T02:51:45;99004.81;;;6.41;100.00
70407;BME280;57821;52.202;0.154;2023-03-14T02:54:14;99010.03;;;6.36;100.00
70407;BME280;57821;52.202;0.154;2023-03-14T02:56:41;99026.38;;;6.34;100.00
70407;BME280;57821;52.202;0.154;2023-03-14T02:59:11;99028.19;;;6.27;100.00
70407;BME280;57821;52.202;0.154;2023-03-14T03:01:45;99040.22;;;6.24;100.00
70407;BME280;57821;52.202;0.154;2023-03-14T03:04:11;99051.47;;;6.18;100.00
70407;BME280;57821;52.202;0.154;2023-03-14T03:06:38;99057.53;;;6.14;100.00
70407;BME280;57821;52.202;0.154;2023-03-14T03:09:04;99053.38;;;6.05;100.00
70407;BME280;57821;52.202;0.154;2023-03-14T03:11:31;99061.16;;;5.98;100.00
70407;BME280;57821;52.202;0.154;2023-03-14T03:13:57;99071.47;;;5.95;100.00
70407;BME280;57821;52.202;0.154;2023-03-14T03:16:26;99068.94;;;5.92;100.00
70407;BME280;57821;52.202;0.154;2023-03-14T03:18:53;99091.31;;;5.88;100.00
70407;BME280;57821;52.202;0.154;2023-03-14T03:21:20;99096.44;;;5.85;100.00
70407;BME280;57821;52.202;0.154;2023-03-14T03:23:46;99102.44;;;5.83;100.00
70407;BME280;57821;52.202;0.154;2023-03-14T03:26:13;99104.19;;;5.81;100.00
70407;BME280;57821;52.202;0.154;2023-03-14T03:28:39;99109.38;;;5.77;100.00
70407;BME280;57821;52.202;0.154;2023-03-14T03:31:08;99116.28;;;5.74;100.00
70407;BME280;57821;52.202;0.154;2023-03-14T03:33:37;99128.31;;;5.70;100.00
70407;BME280;57821;52.202;0.154;2023-03-14T03:36:04;99136.91;;;5.66;100.00
70407;BME280;57821;52.202;0.154;2023-03-14T03:38:34;99139.53;;;5.62;100.00
70407;BME280;57821;52.202;0.154;2023-03-14T03:41:05;99146.44;;;5.54;100.00
70407;BME280;57821;52.202;0.154;2023-03-14T03:43:32;99163.56;;;5.58;100.00
70407;BME280;57821;52.202;0.154;2023-03-14T03:46:05;99155.88;;;5.56;100.00
70407;BME280;57821;52.202;0.154;2023-03-14T03:48:32;99166.97;;;5.61;100.00
70407;BME280;57821;52.202;0.154;2023-03-14T03:51:02;99169.53;;;5.63;100.00
70407;BME280;57821;52.202;0.154;2023-03-14T03:53:29;99174.63;;;5.66;100.00
70407;BME280;57821;52.202;0.154;2023-03-14T03:56:03;99176.34;;;5.65;100.00
70407;BME280;57821;52.202;0.154;2023-03-14T03:58:29;99184.94;;;5.64;100.00
70407;BME280;57821;52.202;0.154;2023-03-14T04:00:56;99184.94;;;5.64;100.00
70407;BME280;57821;52.202;0.154;2023-03-14T04:03:23;99194.34;;;5.67;100.00
70407;BME280;57821;52.202;0.154;2023-03-14T04:06:04;99203.75;;;5.66;100.00
70407;BME280;57821;52.202;0.154;2023-03-14T04:08:33;99208.94;;;5.63;100.00
70407;BME280;57821;52.202;0.154;2023-03-14T04:11:01;99214.09;;;5.63;100.00
70407;BME280;57821;52.202;0.154;2023-03-14T04:13:47;99217.53;;;5.62;100.00
70407;BME280;57821;52.202;0.154;2023-03-14T04:16:19;99215.00;;;5.58;100.00
70407;BME280;57821;52.202;0.154;2023-03-14T04:18:47;99238.09;;;5.62;100.00
70407;BME280;57821;52.202;0.154;2023-03-14T04:21:14;99231.25;;;5.61;100.00
70407;BME280;57821;52.202;0.154;2023-03-14T04:23:47;99239.81;;;5.60;100.00
70407;BME280;57821;52.202;0.154;2023-03-14T04:26:15;99251.81;;;5.61;100.00
70407;BME280;57821;52.202;0.154;2023-03-14T04:28:43;99249.25;;;5.60;100.00
70407;BME280;57821;52.202;0.154;2023-03-14T04:31:12;99251.84;;;5.54;100.00
70407;BME280;57821;52.202;0.154;2023-03-14T04:33:39;99251.00;;;5.55;100.00
70407;BME280;57821;52.202;0.154;2023-03-14T04:36:07;99279.28;;;5.56;100.00
70407;BME280;57821;52.202;0.154;2023-03-14T04:38:35;99263.84;;;5.56;100.00
70407;BME280;57821;52.202;0.154;2023-03-14T04:41:02;99289.56;;;5.56;100.00
70407;BME280;57821;52.202;0.154;2023-03-14T04:43:31;99296.41;;;5.56;100.00
70407;BME280;57821;52.202;0.154;2023-03-14T04:46:03;99300.69;;;5.54;100.00
70407;BME280;57821;52.202;0.154;2023-03-14T04:48:29;99307.59;;;5.49;100.00
70407;BME280;57821;52.202;0.154;2023-03-14T04:50:57;99311.91;;;5.45;100.00
70407;BME280;57821;52.202;0.154;2023-03-14T04:53:25;99321.38;;;5.42;100.00
70407;BME280;57821;52.202;0.154;2023-03-14T04:55:55;99320.50;;;5.36;100.00
70407;BME280;57821;52.202;0.154;2023-03-14T04:58:24;99334.25;;;5.32;100.00
70407;BME280;57821;52.202;0.154;2023-03-14T05:00:52;99342.00;;;5.28;100.00
70407;BME280;57821;52.202;0.154;2023-03-14T05:03:41;99337.75;;;5.21;100.00
70407;BME280;57821;52.202;0.154;2023-03-14T05:06:27;99354.88;;;5.19;100.00
70407;BME280;57821;52.202;0.154;2023-03-14T05:09:11;99358.34;;;5.10;100.00
70407;BME280;57821;52.202;0.154;2023-03-14T05:12:08;99364.38;;;5.06;100.00
70407;BME280;57821;52.202;0.154;2023-03-14T05:14:45;99378.91;;;5.03;100.00
70407;BME280;57821;52.202;0.154;2023-03-14T05:17:12;99378.09;;;4.97;100.00
70407;BME280;57821;52.202;0.154;2023-03-14T05:19:53;99378.94;;;4.96;100.00
70407;BME280;57821;52.202;0.154;2023-03-14T05:22:31;99385.81;;;4.91;100.00
70407;BME280;57821;52.202;0.154;2023-03-14T05:25:07;99392.66;;;4.89;100.00
70407;BME280;57821;52.202;0.154;2023-03-14T05:28:06;99403.81;;;4.88;100.00
70407;BME280;57821;52.202;0.154;2023-03-14T05:30:50;99410.66;;;4.82;100.00
70407;BME280;57821;52.202;0.154;2023-03-14T05:33:28;99404.66;;;4.72;100.00
70407;BME280;57821;52.202;0.154;2023-03-14T05:36:08;99412.41;;;4.71;100.00
70407;BME280;57821;52.202;0.154;2023-03-14T05:38:53;99418.41;;;4.65;100.00
70407;BME280;57821;52.202;0.154;2023-03-14T05:41:26;99432.91;;;4.60;100.00
70407;BME280;57821;52.202;0.154;2023-03-14T05:44:13;99444.06;;;4.56;100.00
70407;BME280;57821;52.202;0.154;2023-03-14T05:46:58;99444.91;;;4.50;100.00
70407;BME280;57821;52.202;0.154;2023-03-14T05:49:44;99450.91;;;4.49;100.00
70407;BME280;57821;52.202;0.154;2023-03-14T05:52:13;99462.03;;;4.45;100.00
70407;BME280;57821;52.202;0.154;2023-03-14T05:54:54;99478.28;;;4.44;100.00
70407;BME280;57821;52.202;0.154;2023-03-14T05:57:36;99483.41;;;4.43;100.00
70407;BME280;57821;52.202;0.154;2023-03-14T06:00:20;99504.81;;;4.46;100.00
70407;BME280;57821;52.202;0.154;2023-03-14T06:03:07;99508.22;;;4.45;100.00
70407;BME280;57821;52.202;0.154;2023-03-14T06:05:39;99527.94;;;4.48;100.00
70407;BME280;57821;52.202;0.154;2023-03-14T06:08:05;99529.63;;;4.46;100.00
70407;BME280;57821;52.202;0.154;2023-03-14T06:10:32;99543.31;;;4.48;100.00
70407;BME280;57821;52.202;0.154;2023-03-14T06:12:59;99545.03;;;4.52;100.00
70407;BME280;57821;52.202;0.154;2023-03-14T06:15:25;99555.31;;;4.52;100.00
70407;BME280;57821;52.202;0.154;2023-03-14T06:17:55;99557.88;;;4.47;100.00
70407;BME280;57821;52.202;0.154;2023-03-14T06:20:22;99559.56;;;4.44;100.00
70407;BME280;57821;52.202;0.154;2023-03-14T06:22:49;99588.63;;;4.43;100.00
70407;BME280;57821;52.202;0.154;2023-03-14T06:25:15;99584.38;;;4.36;100.00
70407;BME280;57821;52.202;0.154;2023-03-14T06:27:45;99598.88;;;4.34;100.00
70407;BME280;57821;52.202;0.154;2023-03-14T06:30:12;99602.28;;;4.28;100.00
70407;BME280;57821;52.202;0.154;2023-03-14T06:32:39;99609.97;;;4.22;100.00
70407;BME280;57821;52.202;0.154;2023-03-14T06:35:09;99624.50;;;4.19;100.00
70407;BME280;57821;52.202;0.154;2023-03-14T06:37:39;99632.19;;;4.17;100.00
70407;BME280;57821;52.202;0.154;2023-03-14T06:40:07;99640.72;;;4.14;100.00
70407;BME280;57821;52.202;0.154;2023-03-14T06:42:47;99653.53;;;4.14;100.00
70407;BME280;57821;52.202;0.154;2023-03-14T06:45:15;99674.94;;;4.17;100.00
70407;BME280;57821;52.202;0.154;2023-03-14T06:47:42;99691.16;;;4.14;100.00
70407;BME280;57821;52.202;0.154;2023-03-14T06:50:10;99688.63;;;4.12;100.00
70407;BME280;57821;52.202;0.154;2023-03-14T06:52:38;99715.09;;;4.10;100.00
70407;BME280;57821;52.202;0.154;2023-03-14T06:55:05;99719.34;;;4.05;100.00
70407;BME280;57821;52.202;0.154;2023-03-14T06:57:32;99737.28;;;4.03;100.00
70407;BME280;57821;52.202;0.154;2023-03-14T06:59:59;99739.84;;;4.02;100.00
70407;BME280;57821;52.202;0.154;2023-03-14T07:02:25;99755.19;;;3.97;100.00
70407;BME280;57821;52.202;0.154;2023-03-14T07:05:14;99762.91;;;3.96;100.00
70407;BME280;57821;52.202;0.154;2023-03-14T07:07:41;99783.44;;;3.96;100.00
70407;BME280;57821;52.202;0.154;2023-03-14T07:10:08;99780.78;;;3.88;100.00
70407;BME280;57821;52.202;0.154;2023-03-14T07:12:35;99798.72;;;3.84;100.00
70407;BME280;57821;52.202;0.154;2023-03-14T07:15:02;99808.09;;;3.83;100.00
70407;BME280;57821;52.202;0.154;2023-03-14T07:17:54;99811.47;;;3.79;100.00
70407;BME280;57821;52.202;0.154;2023-03-14T07:20:22;99826.84;;;3.79;100.00
70407;BME280;57821;52.202;0.154;2023-03-14T07:22:49;99829.41;;;3.79;100.00
70407;BME280;57821;52.202;0.154;2023-03-14T07:25:21;99841.34;;;3.74;100.00
70407;BME280;57821;52.202;0.154;2023-03-14T07:27:48;99859.34;;;3.77;100.00
70407;BME280;57821;52.202;0.154;2023-03-14T07:30:15;99873.00;;;3.76;100.00
70407;BME280;57821;52.202;0.154;2023-03-14T07:32:41;99881.53;;;3.75;100.00
70407;BME280;57821;52.202;0.154;2023-03-14T07:35:09;99890.91;;;3.73;100.00
70407;BME280;57821;52.202;0.154;2023-03-14T07:37:38;99902.03;;;3.72;100.00
70407;BME280;57821;52.202;0.154;2023-03-14T07:40:05;99912.28;;;3.72;100.00
70407;BME280;57821;52.202;0.154;2023-03-14T07:42:34;99931.94;;;3.71;100.00
70407;BME280;57821;52.202;0.154;2023-03-14T07:45:14;99936.13;;;3.68;100.00
70407;BME280;57821;52.202;0.154;2023-03-14T07:47:41;99942.13;;;3.65;100.00
70407;BME280;57821;52.202;0.154;2023-03-14T07:50:08;99962.59;;;3.64;100.00
70407;BME280;57821;52.202;0.154;2023-03-14T07:52:35;99975.41;;;3.64;100.00
70407;BME280;57821;52.202;0.154;2023-03-14T07:55:01;99981.38;;;3.63;100.00
70407;BME280;57821;52.202;0.154;2023-03-14T07:57:28;99994.19;;;3.63;100.00
70407;BME280;57821;52.202;0.154;2023-03-14T07:59:54;100001.84;;;3.58;100.00
70407;BME280;57821;52.202;0.154;2023-03-14T08:02:20;100007.78;;;3.54;100.00
70407;BME280;57821;52.202;0.154;2023-03-14T08:04:47;100032.59;;;3.58;100.00
70407;BME280;57821;52.202;0.154;2023-03-14T08:07:14;100036.84;;;3.56;100.00
70407;BME280;57821;52.202;0.154;2023-03-14T08:09:40;100046.22;;;3.54;100.00
70407;BME280;57821;52.202;0.154;2023-03-14T08:12:07;100046.22;;;3.54;100.00
70407;BME280;57821;52.202;0.154;2023-03-14T08:14:34;100060.75;;;3.57;100.00
70407;BME280;57821;52.202;0.154;2023-03-14T08:17:00;100069.28;;;3.56;100.00
70407;BME280;57821;52.202;0.154;2023-03-14T08:19:27;100073.63;;;3.58;100.00
70407;BME280;57821;52.202;0.154;2023-03-14T08:21:53;100088.13;;;3.58;100.00
70407;BME280;57821;52.202;0.154;2023-03-14T08:24:20;100092.44;;;3.62;100.00
70407;BME280;57821;52.202;0.154;2023-03-14T08:26:46;100102.72;;;3.63;100.00
70407;BME280;57821;52.202;0.154;2023-03-14T08:29:13;100117.25;;;3.63;100.00
70407;BME280;57821;52.202;0.154;2023-03-14T08:31:39;100127.50;;;3.63;100.00
70407;BME280;57821;52.202;0.154;2023-03-14T08:34:06;100136.91;;;3.62;100.00
70407;BME280;57821;52.202;0.154;2023-03-14T08:36:33;100146.28;;;3.62;100.00
70407;BME280;57821;52.202;0.154;2023-03-14T08:39:00;100158.25;;;3.61;100.00
70407;BME280;57821;52.202;0.154;2023-03-14T08:41:26;100162.44;;;3.56;100.00
70407;BME280;57821;52.202;0.154;2023-03-14T08:43:53;100177.00;;;3.59;100.00
70407;BME280;57821;52.202;0.154;2023-03-14T08:46:19;100188.13;;;3.59;100.00
70407;BME280;57821;52.202;0.154;2023-03-14T08:48:46;100198.44;;;3.61;100.00
70407;BME280;57821;52.202;0.154;2023-03-14T08:51:13;100201.00;;;3.61;100.00
70407;BME280;57821;52.202;0.154;2023-03-14T08:53:41;100198.44;;;3.62;100.00
70407;BME280;57821;52.202;0.154;2023-03-14T08:56:08;100217.31;;;3.67;100.00
70407;BME280;57821;52.202;0.154;2023-03-14T08:58:34;100225.00;;;3.66;100.00
70407;BME280;57821;52.202;0.154;2023-03-14T09:01:01;100228.38;;;3.65;100.00
70407;BME280;57821;52.202;0.154;2023-03-14T09:03:27;100234.41;;;3.68;100.00
70407;BME280;57821;52.202;0.154;2023-03-14T09:05:54;100239.59;;;3.71;100.00
70407;BME280;57821;52.202;0.154;2023-03-14T09:08:20;100234.53;;;3.76;100.00
70407;BME280;57821;52.202;0.154;2023-03-14T09:10:47;100247.47;;;3.82;100.00
70407;BME280;57821;52.202;0.154;2023-03-14T09:13:13;100270.69;;;3.93;100.00
70407;BME280;57821;52.202;0.154;2023-03-14T09:15:40;100267.38;;;3.98;100.00
70407;BME280;57821;52.202;0.154;2023-03-14T09:18:06;100283.75;;;4.06;100.00
70407;BME280;57821;52.202;0.154;2023-03-14T09:20:33;100288.97;;;4.12;100.00
70407;BME280;57821;52.202;0.154;2023-03-14T09:22:59;100303.63;;;4.21;100.00
70407;BME280;57821;52.202;0.154;2023-03-14T09:25:26;100308.81;;;4.26;100.00
70407;BME280;57821;52.202;0.154;2023-03-14T09:27:52;100320.03;;;4.32;100.00
70407;BME280;57821;52.202;0.154;2023-03-14T09:30:19;100327.03;;;4.41;100.00
70407;BME280;57821;52.202;0.154;2023-03-14T09:32:45;100335.66;;;4.46;100.00
70407;BME280;57821;52.202;0.154;2023-03-14T09:35:12;100334.81;;;4.47;100.00
70407;BME280;57821;52.202;0.154;2023-03-14T09:37:38;100341.59;;;4.43;100.00
70407;BME280;57821;52.202;0.154;2023-03-14T09:40:05;100352.78;;;4.47;100.00
70407;BME280;57821;52.202;0.154;2023-03-14T09:42:36;100345.91;;;4.46;100.00
70407;BME280;57821;52.202;0.154;2023-03-14T09:45:05;100356.34;;;4.57;100.00
70407;BME280;57821;52.202;0.154;2023-03-14T09:47:33;100362.44;;;4.65;100.00
70407;BME280;57821;52.202;0.154;2023-03-14T09:50:02;100376.31;;;4.76;100.00
70407;BME280;57821;52.202;0.154;2023-03-14T09:52:31;100364.34;;;4.79;100.00
70407;BME280;57821;52.202;0.154;2023-03-14T09:55:02;100373.06;;;4.89;100.00
70407;BME280;57821;52.202;0.154;2023-03-14T09:57:32;100399.72;;;4.99;100.00
70407;BME280;57821;52.202;0.154;2023-03-14T10:00:06;100399.84;;;5.06;100.00
70407;BME280;57821;52.202;0.154;2023-03-14T10:02:37;100407.66;;;5.15;100.00
70407;BME280;57821;52.202;0.154;2023-03-14T10:05:14;100405.94;;;5.16;100.00
70407;BME280;57821;52.202;0.154;2023-03-14T10:07:41;100419.75;;;5.25;100.00
70407;BME280;57821;52.202;0.154;2023-03-14T10:10:15;100425.91;;;5.38;100.00
70407;BME280;57821;52.202;0.154;2023-03-14T10:12:45;100432.09;;;5.54;100.00
70407;BME280;57821;52.202;0.154;2023-03-14T10:15:14;100428.00;;;5.69;100.00
70407;BME280;57821;52.202;0.154;2023-03-14T10:17:49;100432.56;;;5.95;100.00
70407;BME280;57821;52.202;0.154;2023-03-14T10:23:05;100454.50;;;6.48;100.00
70407;BME280;57821;52.202;0.154;2023-03-14T10:25:35;100445.25;;;6.72;100.00
70407;BME280;57821;52.202;0.154;2023-03-14T10:28:04;100452.31;;;7.01;100.00
70407;BME280;57821;52.202;0.154;2023-03-14T10:30:38;100459.41;;;7.42;100.00
70407;BME280;57821;52.202;0.154;2023-03-14T10:33:10;100467.28;;;7.80;100.00
70407;BME280;57821;52.202;0.154;2023-03-14T10:35:37;100488.03;;;8.13;100.00
70407;BME280;57821;52.202;0.154;2023-03-14T10:38:04;100485.50;;;8.42;100.00
70407;BME280;57821;52.202;0.154;2023-03-14T10:40:33;100504.44;;;8.75;100.00
70407;BME280;57821;52.202;0.154;2023-03-14T10:43:03;100493.25;;;8.91;100.00
70407;BME280;57821;52.202;0.154;2023-03-14T10:48:06;100503.56;;;9.26;100.00
70407;BME280;57821;52.202;0.154;2023-03-14T10:53:22;100530.25;;;9.37;100.00
70407;BME280;57821;52.202;0.154;2023-03-14T10:55:52;100538.81;;;9.49;100.00
70407;BME280;57821;52.202;0.154;2023-03-14T10:58:26;100544.00;;;9.54;100.00
70407;BME280;57821;52.202;0.154;2023-03-14T11:03:56;100543.91;;;9.78;100.00
70407;BME280;57821;52.202;0.154;2023-03-14T11:06:36;100549.06;;;9.89;100.00
70407;BME280;57821;52.202;0.154;2023-03-14T11:11:47;100565.53;;;9.62;100.00
70407;BME280;57821;52.202;0.154;2023-03-14T11:19:52;100580.19;;;9.69;100.00
70407;BME280;57821;52.202;0.154;2023-03-14T11:22:46;100578.50;;;9.61;100.00
70407;BME280;57821;52.202;0.154;2023-03-14T11:28:37;100581.91;;;9.76;100.00
70407;BME280;57821;52.202;0.154;2023-03-14T11:33:52;100601.69;;;9.93;100.00
70407;BME280;57821;52.202;0.154;2023-03-14T11:36:41;100620.66;;;10.07;100.00
70407;BME280;57821;52.202;0.154;2023-03-14T11:39:18;100616.38;;;10.00;100.00
70407;BME280;57821;52.202;0.154;2023-03-14T11:41:47;100612.91;;;9.90;100.00
70407;BME280;57821;52.202;0.154;2023-03-14T11:44:30;100619.88;;;9.76;100.00
70407;BME280;57821;52.202;0.154;2023-03-14T11:49:48;100618.22;;;9.43;100.00
70407;BME280;57821;52.202;0.154;2023-03-14T11:55:20;100642.38;;;9.13;100.00
70407;BME280;57821;52.202;0.154;2023-03-14T11:57:50;100638.91;;;8.93;100.00
70407;BME280;57821;52.202;0.154;2023-03-14T12:00:20;100655.25;;;8.86;100.00
70407;BME280;57821;52.202;0.154;2023-03-14T12:10:48;100676.84;;;9.11;100.00
70407;BME280;57821;52.202;0.154;2023-03-14T12:13:16;100682.03;;;9.21;100.00
70407;BME280;57821;52.202;0.154;2023-03-14T12:16:05;100681.19;;;9.13;100.00
70407;BME280;57821;52.202;0.154;2023-03-14T12:18:35;100691.50;;;8.90;100.00
70407;BME280;57821;52.202;0.154;2023-03-14T12:21:04;100689.75;;;8.77;100.00
70407;BME280;57821;52.202;0.154;2023-03-14T12:23:51;100695.78;;;8.78;100.00
70407;BME280;57821;52.202;0.154;2023-03-14T12:26:24;100698.38;;;8.79;100.00
70407;BME280;57821;52.202;0.154;2023-03-14T12:29:09;100694.03;;;8.80;100.00
70407;BME280;57821;52.202;0.154;2023-03-14T12:31:46;100691.44;;;8.66;100.00
70407;BME280;57821;52.202;0.154;2023-03-14T12:36:48;100690.59;;;8.82;100.00
70407;BME280;57821;52.202;0.154;2023-03-14T12:42:12;100700.16;;;9.24;100.00
70407;BME280;57821;52.202;0.154;2023-03-14T12:49:50;100702.75;;;9.23;100.00
70407;BME280;57821;52.202;0.154;2023-03-14T12:52:50;100720.88;;;9.47;100.00
70407;BME280;57821;52.202;0.154;2023-03-14T13:01:18;100724.28;;;9.22;100.00
70407;BME280;57821;52.202;0.154;2023-03-14T13:12:03;100738.13;;;9.63;100.00
70407;BME280;57821;52.202;0.154;2023-03-14T13:14:35;100731.22;;;9.56;96.39
70407;BME280;57821;52.202;0.154;2023-03-14T13:17:11;100741.56;;;9.56;100.00
70407;BME280;57821;52.202;0.154;2023-03-14T13:20:03;100730.34;;;9.57;98.85
70407;BME280;57821;52.202;0.154;2023-03-14T13:22:33;100737.25;;;9.69;98.12
70407;BME280;57821;52.202;0.154;2023-03-14T13:25:02;100727.75;;;9.78;99.35
70407;BME280;57821;52.202;0.154;2023-03-14T13:27:33;100736.34;;;10.02;98.46
70407;BME280;57821;52.202;0.154;2023-03-14T13:30:38;100738.94;;;10.23;100.00
70407;BME280;57821;52.202;0.154;2023-03-14T13:33:06;100753.59;;;10.32;97.99
70407;BME280;57821;52.202;0.154;2023-03-14T13:35:45;100737.16;;;10.40;100.00
70407;BME280;57821;52.202;0.154;2023-03-14T13:38:23;100746.72;;;10.21;96.62
70407;BME280;57821;52.202;0.154;2023-03-14T13:40:53;100732.03;;;10.13;96.02
70407;BME280;57821;52.202;0.154;2023-03-14T13:43:35;100737.22;;;10.28;100.00
70407;BME280;57821;52.202;0.154;2023-03-14T13:46:22;100737.16;;;10.45;100.00
70407;BME280;57821;52.202;0.154;2023-03-14T13:48:58;100737.88;;;10.79;100.00
70407;BME280;57821;52.202;0.154;2023-03-14T13:51:26;100749.81;;;11.10;98.31
70407;BME280;57821;52.202;0.154;2023-03-14T13:53:55;100754.97;;;11.13;93.93
70407;BME280;57821;52.202;0.154;2023-03-14T13:56:24;100758.41;;;11.21;92.10
70407;BME280;57821;52.202;0.154;2023-03-14T13:58:51;100752.34;;;11.22;92.29
70407;BME280;57821;52.202;0.154;2023-03-14T14:03:52;100766.75;;;11.61;93.61
70407;BME280;57821;52.202;0.154;2023-03-14T14:08:51;100775.97;;;12.05;100.00
70407;BME280;57821;52.202;0.154;2023-03-14T14:11:39;100783.81;;;11.97;98.71
70407;BME280;57821;52.202;0.154;2023-03-14T14:14:33;100783.09;;;11.77;85.69
70407;BME280;57821;52.202;0.154;2023-03-14T14:17:03;100777.19;;;11.55;90.58
70407;BME280;57821;52.202;0.154;2023-03-14T14:19:32;100777.38;;;11.29;89.93
70407;BME280;57821;52.202;0.154;2023-03-14T14:22:00;100782.69;;;11.11;90.86
70407;BME280;57821;52.202;0.154;2023-03-14T14:24:30;100789.69;;;10.91;89.68
70407;BME280;57821;52.202;0.154;2023-03-14T14:27:27;100789.75;;;10.79;94.48
70407;BME280;57821;52.202;0.154;2023-03-14T14:30:03;100804.50;;;10.64;92.55
70407;BME280;57821;52.202;0.154;2023-03-14T14:32:38;100802.81;;;10.50;92.18